sensor_id;sensor_type;location;lat;lon;timestamp;P1;durP1;ratioP1;P2;durP2;ratioP2
47251;SDS011;32991;51.374;11.586;2023-06-19T00:01:02;7.32;;;5.70;;
47251;SDS011;32991;51.374;11.586;2023-06-19T00:03:29;9.13;;;7.07;;
47251;SDS011;32991;51.374;11.586;2023-06-19T00:05:55;10.13;;;6.43;;
47251;SDS011;32991;51.374;11.586;2023-06-19T00:08:22;7.32;;;6.22;;
47251;SDS011;32991;51.374;11.586;2023-06-19T00:10:49;6.72;;;6.00;;
47251;SDS011;32991;51.374;11.586;2023-06-19T00:13:16;8.38;;;6.20;;
47251;SDS011;32991;51.374;11.586;2023-06-19T00:15:43;8.32;;;6.45;;
47251;SDS011;32991;51.374;11.586;2023-06-19T00:18:09;7.00;;;6.40;;
47251;SDS011;32991;51.374;11.586;2023-06-19T00:20:37;9.00;;;6.40;;
47251;SDS011;32991;51.374;11.586;2023-06-19T00:23:05;7.38;;;6.63;;
47251;SDS011;32991;51.374;11.586;2023-06-19T00:25:37;6.75;;;6.05;;
47251;SDS011;32991;51.374;11.586;2023-06-19T00:28:03;8.40;;;6.75;;
47251;SDS011;32991;51.374;11.586;2023-06-19T00:30:30;7.90;;;7.03;;
47251;SDS011;32991;51.374;11.586;2023-06-19T00:32:59;8.40;;;7.53;;
47251;SDS011;32991;51.374;11.586;2023-06-19T00:35:29;13.10;;;7.80;;
47251;SDS011;32991;51.374;11.586;2023-06-19T00:37:56;8.57;;;7.55;;
47251;SDS011;32991;51.374;11.586;2023-06-19T00:42:57;9.23;;;7.68;;
47251;SDS011;32991;51.374;11.586;2023-06-19T00:45:24;8.27;;;7.20;;
47251;SDS011;32991;51.374;11.586;2023-06-19T00:47:52;8.80;;;7.85;;
47251;SDS011;32991;51.374;11.586;2023-06-19T00:50:20;12.35;;;7.20;;
47251;SDS011;32991;51.374;11.586;2023-06-19T00:52:51;9.82;;;6.85;;
47251;SDS011;32991;51.374;11.586;2023-06-19T00:55:18;7.53;;;6.82;;
47251;SDS011;32991;51.374;11.586;2023-06-19T00:57:45;8.52;;;6.68;;
47251;SDS011;32991;51.374;11.586;2023-06-19T01:00:12;8.10;;;7.15;;
47251;SDS011;32991;51.374;11.586;2023-06-19T01:02:39;8.75;;;7.47;;
47251;SDS011;32991;51.374;11.586;2023-06-19T01:05:06;10.82;;;7.68;;
47251;SDS011;32991;51.374;11.586;2023-06-19T01:07:45;7.22;;;6.55;;
47251;SDS011;32991;51.374;11.586;2023-06-19T01:10:41;7.68;;;6.93;;
47251;SDS011;32991;51.374;11.586;2023-06-19T01:13:19;9.57;;;7.50;;
47251;SDS011;32991;51.374;11.586;2023-06-19T01:15:49;11.25;;;7.60;;
47251;SDS011;32991;51.374;11.586;2023-06-19T01:18:15;8.27;;;6.93;;
47251;SDS011;32991;51.374;11.586;2023-06-19T01:20:43;8.57;;;7.70;;
47251;SDS011;32991;51.374;11.586;2023-06-19T01:23:10;7.70;;;7.00;;
47251;SDS011;32991;51.374;11.586;2023-06-19T01:25:38;10.02;;;7.43;;
47251;SDS011;32991;51.374;11.586;2023-06-19T01:28:06;10.38;;;7.70;;
47251;SDS011;32991;51.374;11.586;2023-06-19T01:30:36;11.35;;;7.68;;
47251;SDS011;32991;51.374;11.586;2023-06-19T01:33:14;10.55;;;8.65;;
47251;SDS011;32991;51.374;11.586;2023-06-19T01:35:43;11.73;;;8.35;;
47251;SDS011;32991;51.374;11.586;2023-06-19T01:38:12;9.77;;;8.40;;
47251;SDS011;32991;51.374;11.586;2023-06-19T01:40:39;10.65;;;8.27;;
47251;SDS011;32991;51.374;11.586;2023-06-19T01:43:06;12.70;;;8.70;;
47251;SDS011;32991;51.374;11.586;2023-06-19T01:45:33;11.80;;;8.80;;
47251;SDS011;32991;51.374;11.586;2023-06-19T01:48:00;11.15;;;8.80;;
47251;SDS011;32991;51.374;11.586;2023-06-19T01:50:27;9.90;;;8.20;;
47251;SDS011;32991;51.374;11.586;2023-06-19T01:52:54;12.60;;;9.32;;
47251;SDS011;32991;51.374;11.586;2023-06-19T01:55:21;11.02;;;9.50;;
47251;SDS011;32991;51.374;11.586;2023-06-19T01:57:48;11.23;;;9.27;;
47251;SDS011;32991;51.374;11.586;2023-06-19T02:00:15;9.85;;;8.90;;
47251;SDS011;32991;51.374;11.586;2023-06-19T02:02:42;10.13;;;8.68;;
47251;SDS011;32991;51.374;11.586;2023-06-19T02:05:09;10.77;;;8.90;;
47251;SDS011;32991;51.374;11.586;2023-06-19T02:07:37;14.00;;;9.07;;
47251;SDS011;32991;51.374;11.586;2023-06-19T02:10:04;9.30;;;8.35;;
47251;SDS011;32991;51.374;11.586;2023-06-19T02:12:31;8.88;;;8.00;;
47251;SDS011;32991;51.374;11.586;2023-06-19T02:14:58;9.32;;;8.25;;
47251;SDS011;32991;51.374;11.586;2023-06-19T02:17:25;10.85;;;8.50;;
47251;SDS011;32991;51.374;11.586;2023-06-19T02:19:51;10.82;;;8.90;;
47251;SDS011;32991;51.374;11.586;2023-06-19T02:22:18;11.77;;;8.43;;
47251;SDS011;32991;51.374;11.586;2023-06-19T02:24:45;9.02;;;8.13;;
47251;SDS011;32991;51.374;11.586;2023-06-19T02:27:12;9.82;;;8.48;;
47251;SDS011;32991;51.374;11.586;2023-06-19T02:29:38;10.38;;;8.55;;
47251;SDS011;32991;51.374;11.586;2023-06-19T02:32:05;9.70;;;7.85;;
47251;SDS011;32991;51.374;11.586;2023-06-19T02:34:33;10.70;;;8.48;;
47251;SDS011;32991;51.374;11.586;2023-06-19T02:36:59;8.75;;;7.95;;
47251;SDS011;32991;51.374;11.586;2023-06-19T02:39:26;8.77;;;7.80;;
47251;SDS011;32991;51.374;11.586;2023-06-19T02:41:53;9.57;;;8.55;;
47251;SDS011;32991;51.374;11.586;2023-06-19T02:44:20;9.50;;;8.60;;
47251;SDS011;32991;51.374;11.586;2023-06-19T02:46:46;10.13;;;9.13;;
47251;SDS011;32991;51.374;11.586;2023-06-19T02:49:14;10.60;;;8.80;;
47251;SDS011;32991;51.374;11.586;2023-06-19T02:51:42;10.32;;;9.15;;
47251;SDS011;32991;51.374;11.586;2023-06-19T02:54:08;11.10;;;8.90;;
47251;SDS011;32991;51.374;11.586;2023-06-19T02:56:35;11.90;;;8.57;;
47251;SDS011;32991;51.374;11.586;2023-06-19T02:59:02;11.57;;;9.00;;
47251;SDS011;32991;51.374;11.586;2023-06-19T03:01:28;9.50;;;8.18;;
47251;SDS011;32991;51.374;11.586;2023-06-19T03:03:56;13.13;;;9.48;;
47251;SDS011;32991;51.374;11.586;2023-06-19T03:06:22;10.18;;;8.65;;
47251;SDS011;32991;51.374;11.586;2023-06-19T03:08:49;10.82;;;9.65;;
47251;SDS011;32991;51.374;11.586;2023-06-19T03:11:17;12.77;;;9.85;;
47251;SDS011;32991;51.374;11.586;2023-06-19T03:16:16;12.23;;;9.95;;
47251;SDS011;32991;51.374;11.586;2023-06-19T03:18:44;10.93;;;9.82;;
47251;SDS011;32991;51.374;11.586;2023-06-19T03:21:12;10.77;;;9.68;;
47251;SDS011;32991;51.374;11.586;2023-06-19T03:23:40;11.63;;;9.23;;
47251;SDS011;32991;51.374;11.586;2023-06-19T03:26:08;13.73;;;9.43;;
47251;SDS011;32991;51.374;11.586;2023-06-19T03:28:38;11.85;;;10.27;;
47251;SDS011;32991;51.374;11.586;2023-06-19T03:31:07;12.02;;;9.05;;
47251;SDS011;32991;51.374;11.586;2023-06-19T03:33:33;10.63;;;9.52;;
47251;SDS011;32991;51.374;11.586;2023-06-19T03:36:00;16.20;;;11.25;;
47251;SDS011;32991;51.374;11.586;2023-06-19T03:38:37;15.07;;;11.90;;
47251;SDS011;32991;51.374;11.586;2023-06-19T03:41:04;13.93;;;11.32;;
47251;SDS011;32991;51.374;11.586;2023-06-19T03:43:31;12.90;;;11.15;;
47251;SDS011;32991;51.374;11.586;2023-06-19T03:45:57;13.75;;;12.35;;
47251;SDS011;32991;51.374;11.586;2023-06-19T03:48:24;12.55;;;11.18;;
47251;SDS011;32991;51.374;11.586;2023-06-19T03:50:51;12.77;;;11.57;;
47251;SDS011;32991;51.374;11.586;2023-06-19T03:53:18;13.13;;;11.80;;
47251;SDS011;32991;51.374;11.586;2023-06-19T03:55:45;12.52;;;11.35;;
47251;SDS011;32991;51.374;11.586;2023-06-19T03:58:12;12.52;;;11.23;;
47251;SDS011;32991;51.374;11.586;2023-06-19T04:00:40;12.95;;;11.45;;
47251;SDS011;32991;51.374;11.586;2023-06-19T04:03:07;13.32;;;12.00;;
47251;SDS011;32991;51.374;11.586;2023-06-19T04:05:36;13.50;;;12.05;;
47251;SDS011;32991;51.374;11.586;2023-06-19T04:08:03;12.63;;;11.43;;
47251;SDS011;32991;51.374;11.586;2023-06-19T04:10:30;12.60;;;11.35;;
47251;SDS011;32991;51.374;11.586;2023-06-19T04:13:00;14.20;;;11.35;;
47251;SDS011;32991;51.374;11.586;2023-06-19T04:15:29;14.63;;;11.52;;
47251;SDS011;32991;51.374;11.586;2023-06-19T04:17:58;14.70;;;11.80;;
47251;SDS011;32991;51.374;11.586;2023-06-19T04:20:28;14.23;;;11.88;;
47251;SDS011;32991;51.374;11.586;2023-06-19T04:22:55;14.52;;;12.02;;
47251;SDS011;32991;51.374;11.586;2023-06-19T04:25:22;13.35;;;11.65;;
47251;SDS011;32991;51.374;11.586;2023-06-19T04:27:49;14.57;;;12.18;;
47251;SDS011;32991;51.374;11.586;2023-06-19T04:30:15;11.68;;;10.48;;
47251;SDS011;32991;51.374;11.586;2023-06-19T04:32:42;12.10;;;11.02;;
47251;SDS011;32991;51.374;11.586;2023-06-19T04:35:09;14.95;;;11.75;;
47251;SDS011;32991;51.374;11.586;2023-06-19T04:37:36;13.32;;;11.27;;
47251;SDS011;32991;51.374;11.586;2023-06-19T04:40:03;15.90;;;12.05;;
47251;SDS011;32991;51.374;11.586;2023-06-19T04:42:30;12.13;;;10.93;;
47251;SDS011;32991;51.374;11.586;2023-06-19T04:44:57;13.95;;;11.27;;
47251;SDS011;32991;51.374;11.586;2023-06-19T04:47:25;16.73;;;11.48;;
47251;SDS011;32991;51.374;11.586;2023-06-19T04:50:06;15.43;;;10.75;;
47251;SDS011;32991;51.374;11.586;2023-06-19T04:52:33;11.43;;;10.30;;
47251;SDS011;32991;51.374;11.586;2023-06-19T04:55:00;12.43;;;10.50;;
47251;SDS011;32991;51.374;11.586;2023-06-19T04:57:27;12.02;;;10.77;;
47251;SDS011;32991;51.374;11.586;2023-06-19T04:59:53;12.73;;;11.43;;
47251;SDS011;32991;51.374;11.586;2023-06-19T05:02:20;12.82;;;11.35;;
47251;SDS011;32991;51.374;11.586;2023-06-19T05:04:47;13.65;;;12.25;;
47251;SDS011;32991;51.374;11.586;2023-06-19T05:07:16;13.68;;;12.15;;
47251;SDS011;32991;51.374;11.586;2023-06-19T05:09:44;15.35;;;11.20;;
47251;SDS011;32991;51.374;11.586;2023-06-19T05:12:11;11.73;;;10.50;;
47251;SDS011;32991;51.374;11.586;2023-06-19T05:14:37;13.55;;;10.38;;
47251;SDS011;32991;51.374;11.586;2023-06-19T05:17:04;12.63;;;11.43;;
47251;SDS011;32991;51.374;11.586;2023-06-19T05:19:32;14.52;;;10.68;;
47251;SDS011;32991;51.374;11.586;2023-06-19T05:21:58;12.27;;;11.00;;
47251;SDS011;32991;51.374;11.586;2023-06-19T05:24:25;13.52;;;11.27;;
47251;SDS011;32991;51.374;11.586;2023-06-19T05:26:52;11.85;;;10.63;;
47251;SDS011;32991;51.374;11.586;2023-06-19T05:29:19;13.05;;;10.15;;
47251;SDS011;32991;51.374;11.586;2023-06-19T05:31:46;12.75;;;10.13;;
47251;SDS011;32991;51.374;11.586;2023-06-19T05:34:14;11.43;;;10.32;;
47251;SDS011;32991;51.374;11.586;2023-06-19T05:36:40;13.32;;;11.38;;
47251;SDS011;32991;51.374;11.586;2023-06-19T05:39:07;12.02;;;10.15;;
47251;SDS011;32991;51.374;11.586;2023-06-19T05:41:34;11.70;;;10.02;;
47251;SDS011;32991;51.374;11.586;2023-06-19T05:44:01;12.52;;;10.88;;
47251;SDS011;32991;51.374;11.586;2023-06-19T05:46:28;12.50;;;11.25;;
47251;SDS011;32991;51.374;11.586;2023-06-19T05:48:54;11.85;;;10.45;;
47251;SDS011;32991;51.374;11.586;2023-06-19T05:51:21;12.60;;;10.93;;
47251;SDS011;32991;51.374;11.586;2023-06-19T05:53:47;11.68;;;10.48;;
47251;SDS011;32991;51.374;11.586;2023-06-19T05:56:16;11.88;;;10.70;;
47251;SDS011;32991;51.374;11.586;2023-06-19T05:58:42;13.38;;;11.32;;
47251;SDS011;32991;51.374;11.586;2023-06-19T06:01:09;15.77;;;10.77;;
47251;SDS011;32991;51.374;11.586;2023-06-19T06:03:36;12.13;;;10.70;;
47251;SDS011;32991;51.374;11.586;2023-06-19T06:06:03;16.38;;;11.70;;
47251;SDS011;32991;51.374;11.586;2023-06-19T06:08:31;14.73;;;11.20;;
47251;SDS011;32991;51.374;11.586;2023-06-19T06:10:58;13.35;;;11.80;;
47251;SDS011;32991;51.374;11.586;2023-06-19T06:13:24;12.20;;;10.70;;
47251;SDS011;32991;51.374;11.586;2023-06-19T06:15:51;12.63;;;11.23;;
47251;SDS011;32991;51.374;11.586;2023-06-19T06:18:18;11.55;;;10.25;;
47251;SDS011;32991;51.374;11.586;2023-06-19T06:20:45;12.43;;;11.07;;
47251;SDS011;32991;51.374;11.586;2023-06-19T06:23:12;12.55;;;11.25;;
47251;SDS011;32991;51.374;11.586;2023-06-19T06:25:39;13.82;;;11.95;;
47251;SDS011;32991;51.374;11.586;2023-06-19T06:28:05;13.07;;;11.65;;
47251;SDS011;32991;51.374;11.586;2023-06-19T06:30:32;13.02;;;11.77;;
47251;SDS011;32991;51.374;11.586;2023-06-19T06:32:59;12.55;;;11.25;;
47251;SDS011;32991;51.374;11.586;2023-06-19T06:35:25;14.88;;;12.35;;
47251;SDS011;32991;51.374;11.586;2023-06-19T06:37:53;17.30;;;12.57;;
47251;SDS011;32991;51.374;11.586;2023-06-19T06:40:20;18.85;;;12.98;;
47251;SDS011;32991;51.374;11.586;2023-06-19T06:42:47;15.60;;;11.93;;
47251;SDS011;32991;51.374;11.586;2023-06-19T06:45:15;18.58;;;12.32;;
47251;SDS011;32991;51.374;11.586;2023-06-19T06:47:42;14.30;;;11.90;;
47251;SDS011;32991;51.374;11.586;2023-06-19T06:50:09;17.98;;;11.85;;
47251;SDS011;32991;51.374;11.586;2023-06-19T06:52:36;19.00;;;13.00;;
47251;SDS011;32991;51.374;11.586;2023-06-19T06:55:04;23.95;;;12.50;;
47251;SDS011;32991;51.374;11.586;2023-06-19T06:57:31;16.95;;;11.00;;
47251;SDS011;32991;51.374;11.586;2023-06-19T06:59:58;13.43;;;11.15;;
47251;SDS011;32991;51.374;11.586;2023-06-19T07:02:25;18.98;;;11.90;;
47251;SDS011;32991;51.374;11.586;2023-06-19T07:04:53;17.77;;;12.43;;
47251;SDS011;32991;51.374;11.586;2023-06-19T07:07:23;15.38;;;11.63;;
47251;SDS011;32991;51.374;11.586;2023-06-19T07:09:49;17.92;;;12.38;;
47251;SDS011;32991;51.374;11.586;2023-06-19T07:12:16;20.70;;;11.75;;
47251;SDS011;32991;51.374;11.586;2023-06-19T07:14:43;15.55;;;12.23;;
47251;SDS011;32991;51.374;11.586;2023-06-19T07:17:15;18.52;;;12.38;;
47251;SDS011;32991;51.374;11.586;2023-06-19T07:19:46;15.18;;;12.23;;
47251;SDS011;32991;51.374;11.586;2023-06-19T07:22:13;23.15;;;12.82;;
47251;SDS011;32991;51.374;11.586;2023-06-19T07:24:40;26.23;;;11.63;;
47251;SDS011;32991;51.374;11.586;2023-06-19T07:27:09;16.58;;;11.80;;
47251;SDS011;32991;51.374;11.586;2023-06-19T07:29:35;20.42;;;11.68;;
47251;SDS011;32991;51.374;11.586;2023-06-19T07:32:02;14.13;;;12.02;;
47251;SDS011;32991;51.374;11.586;2023-06-19T07:34:30;13.68;;;12.27;;
47251;SDS011;32991;51.374;11.586;2023-06-19T07:36:57;13.07;;;11.68;;
47251;SDS011;32991;51.374;11.586;2023-06-19T07:39:24;15.07;;;11.43;;
47251;SDS011;32991;51.374;11.586;2023-06-19T07:41:51;15.40;;;12.10;;
47251;SDS011;32991;51.374;11.586;2023-06-19T07:44:17;14.65;;;11.27;;
47251;SDS011;32991;51.374;11.586;2023-06-19T07:46:44;15.77;;;12.02;;
47251;SDS011;32991;51.374;11.586;2023-06-19T07:49:11;13.98;;;12.35;;
47251;SDS011;32991;51.374;11.586;2023-06-19T07:51:38;13.32;;;10.98;;
47251;SDS011;32991;51.374;11.586;2023-06-19T07:54:04;16.55;;;12.40;;
47251;SDS011;32991;51.374;11.586;2023-06-19T07:56:31;15.85;;;11.70;;
47251;SDS011;32991;51.374;11.586;2023-06-19T07:58:59;13.63;;;10.85;;
47251;SDS011;32991;51.374;11.586;2023-06-19T08:01:27;13.05;;;11.40;;
47251;SDS011;32991;51.374;11.586;2023-06-19T08:03:55;12.07;;;10.85;;
47251;SDS011;32991;51.374;11.586;2023-06-19T08:06:22;13.65;;;11.02;;
47251;SDS011;32991;51.374;11.586;2023-06-19T08:08:48;11.57;;;10.48;;
47251;SDS011;32991;51.374;11.586;2023-06-19T08:11:15;15.70;;;10.45;;
47251;SDS011;32991;51.374;11.586;2023-06-19T08:13:42;12.23;;;11.07;;
47251;SDS011;32991;51.374;11.586;2023-06-19T08:16:08;16.58;;;11.23;;
47251;SDS011;32991;51.374;11.586;2023-06-19T08:18:36;15.73;;;10.65;;
47251;SDS011;32991;51.374;11.586;2023-06-19T08:21:03;11.70;;;10.50;;
47251;SDS011;32991;51.374;11.586;2023-06-19T08:23:30;11.45;;;10.35;;
47251;SDS011;32991;51.374;11.586;2023-06-19T08:25:57;10.65;;;9.35;;
47251;SDS011;32991;51.374;11.586;2023-06-19T08:28:23;11.85;;;9.32;;
47251;SDS011;32991;51.374;11.586;2023-06-19T08:30:50;11.00;;;9.90;;
47251;SDS011;32991;51.374;11.586;2023-06-19T08:33:16;12.10;;;9.90;;
47251;SDS011;32991;51.374;11.586;2023-06-19T08:35:43;10.63;;;8.98;;
47251;SDS011;32991;51.374;11.586;2023-06-19T08:38:10;11.93;;;8.73;;
47251;SDS011;32991;51.374;11.586;2023-06-19T08:40:37;11.73;;;8.90;;
47251;SDS011;32991;51.374;11.586;2023-06-19T08:43:04;10.00;;;9.02;;
47251;SDS011;32991;51.374;11.586;2023-06-19T08:45:30;10.10;;;8.55;;
47251;SDS011;32991;51.374;11.586;2023-06-19T08:47:57;9.57;;;8.07;;
47251;SDS011;32991;51.374;11.586;2023-06-19T08:50:25;8.75;;;7.95;;
47251;SDS011;32991;51.374;11.586;2023-06-19T08:52:52;8.93;;;8.13;;
47251;SDS011;32991;51.374;11.586;2023-06-19T08:55:21;8.70;;;7.90;;
47251;SDS011;32991;51.374;11.586;2023-06-19T08:57:48;7.82;;;7.13;;
47251;SDS011;32991;51.374;11.586;2023-06-19T09:00:28;9.25;;;7.95;;
47251;SDS011;32991;51.374;11.586;2023-06-19T09:02:59;8.33;;;7.50;;
47251;SDS011;32991;51.374;11.586;2023-06-19T09:05:40;8.10;;;7.30;;
47251;SDS011;32991;51.374;11.586;2023-06-19T09:08:13;9.65;;;7.82;;
47251;SDS011;32991;51.374;11.586;2023-06-19T09:10:39;11.98;;;7.88;;
47251;SDS011;32991;51.374;11.586;2023-06-19T09:13:06;11.32;;;7.93;;
47251;SDS011;32991;51.374;11.586;2023-06-19T09:15:34;10.70;;;7.57;;
47251;SDS011;32991;51.374;11.586;2023-06-19T09:18:10;9.38;;;8.48;;
47251;SDS011;32991;51.374;11.586;2023-06-19T09:20:39;9.20;;;8.30;;
47251;SDS011;32991;51.374;11.586;2023-06-19T09:23:10;10.48;;;9.38;;
47251;SDS011;32991;51.374;11.586;2023-06-19T09:25:47;9.63;;;8.70;;
47251;SDS011;32991;51.374;11.586;2023-06-19T09:28:19;10.45;;;9.43;;
47251;SDS011;32991;51.374;11.586;2023-06-19T09:33:19;9.75;;;8.85;;
47251;SDS011;32991;51.374;11.586;2023-06-19T09:35:49;13.23;;;8.88;;
47251;SDS011;32991;51.374;11.586;2023-06-19T09:38:16;10.55;;;9.10;;
47251;SDS011;32991;51.374;11.586;2023-06-19T09:40:45;10.07;;;8.30;;
47251;SDS011;32991;51.374;11.586;2023-06-19T09:43:13;8.48;;;7.68;;
47251;SDS011;32991;51.374;11.586;2023-06-19T09:45:43;8.38;;;7.43;;
47251;SDS011;32991;51.374;11.586;2023-06-19T09:48:10;7.70;;;7.00;;
47251;SDS011;32991;51.374;11.586;2023-06-19T09:50:51;8.40;;;7.40;;
47251;SDS011;32991;51.374;11.586;2023-06-19T09:53:21;8.07;;;7.38;;
47251;SDS011;32991;51.374;11.586;2023-06-19T09:55:49;7.60;;;6.80;;
47251;SDS011;32991;51.374;11.586;2023-06-19T09:58:19;10.35;;;7.68;;
47251;SDS011;32991;51.374;11.586;2023-06-19T10:00:46;7.80;;;7.10;;
47251;SDS011;32991;51.374;11.586;2023-06-19T10:03:16;8.27;;;6.60;;
47251;SDS011;32991;51.374;11.586;2023-06-19T10:05:43;8.27;;;7.15;;
47251;SDS011;32991;51.374;11.586;2023-06-19T10:08:10;7.45;;;6.75;;
47251;SDS011;32991;51.374;11.586;2023-06-19T10:10:37;8.88;;;6.45;;
47251;SDS011;32991;51.374;11.586;2023-06-19T10:13:14;6.80;;;6.10;;
47251;SDS011;32991;51.374;11.586;2023-06-19T10:15:42;7.43;;;6.72;;
47251;SDS011;32991;51.374;11.586;2023-06-19T10:18:13;7.00;;;6.30;;
47251;SDS011;32991;51.374;11.586;2023-06-19T10:28:20;7.68;;;6.70;;
47251;SDS011;32991;51.374;11.586;2023-06-19T10:33:22;8.15;;;6.80;;
47251;SDS011;32991;51.374;11.586;2023-06-19T10:35:50;9.48;;;6.57;;
47251;SDS011;32991;51.374;11.586;2023-06-19T10:38:17;8.23;;;6.28;;
47251;SDS011;32991;51.374;11.586;2023-06-19T10:40:44;7.05;;;6.20;;
47251;SDS011;32991;51.374;11.586;2023-06-19T10:43:12;8.43;;;6.35;;
47251;SDS011;32991;51.374;11.586;2023-06-19T10:45:39;6.90;;;6.30;;
47251;SDS011;32991;51.374;11.586;2023-06-19T10:48:06;7.75;;;6.80;;
47251;SDS011;32991;51.374;11.586;2023-06-19T10:50:41;7.85;;;6.82;;
47251;SDS011;32991;51.374;11.586;2023-06-19T10:53:08;10.50;;;6.65;;
47251;SDS011;32991;51.374;11.586;2023-06-19T10:55:35;8.40;;;7.10;;
47251;SDS011;32991;51.374;11.586;2023-06-19T10:58:01;8.65;;;6.63;;
47251;SDS011;32991;51.374;11.586;2023-06-19T11:00:29;8.73;;;6.70;;
47251;SDS011;32991;51.374;11.586;2023-06-19T11:02:57;7.07;;;6.47;;
47251;SDS011;32991;51.374;11.586;2023-06-19T11:05:25;7.40;;;6.72;;
47251;SDS011;32991;51.374;11.586;2023-06-19T11:07:53;7.70;;;6.93;;
47251;SDS011;32991;51.374;11.586;2023-06-19T11:10:28;9.35;;;6.53;;
47251;SDS011;32991;51.374;11.586;2023-06-19T11:12:56;7.03;;;6.00;;
47251;SDS011;32991;51.374;11.586;2023-06-19T11:15:33;6.75;;;6.05;;
47251;SDS011;32991;51.374;11.586;2023-06-19T11:18:01;6.70;;;6.10;;
47251;SDS011;32991;51.374;11.586;2023-06-19T11:20:28;6.18;;;5.57;;
47251;SDS011;32991;51.374;11.586;2023-06-19T11:22:56;7.60;;;6.32;;
47251;SDS011;32991;51.374;11.586;2023-06-19T11:25:24;6.75;;;6.13;;
47251;SDS011;32991;51.374;11.586;2023-06-19T11:27:52;5.90;;;5.40;;
47251;SDS011;32991;51.374;11.586;2023-06-19T11:30:29;9.73;;;5.60;;
47251;SDS011;32991;51.374;11.586;2023-06-19T11:32:58;6.13;;;5.53;;
47251;SDS011;32991;51.374;11.586;2023-06-19T11:35:32;4.88;;;4.47;;
47251;SDS011;32991;51.374;11.586;2023-06-19T11:38:00;4.93;;;4.47;;
47251;SDS011;32991;51.374;11.586;2023-06-19T11:40:28;4.50;;;4.10;;
47251;SDS011;32991;51.374;11.586;2023-06-19T11:42:56;4.50;;;4.10;;
47251;SDS011;32991;51.374;11.586;2023-06-19T11:45:22;4.72;;;4.32;;
47251;SDS011;32991;51.374;11.586;2023-06-19T11:47:49;5.20;;;4.70;;
47251;SDS011;32991;51.374;11.586;2023-06-19T11:50:16;4.68;;;4.20;;
47251;SDS011;32991;51.374;11.586;2023-06-19T11:52:43;4.15;;;3.60;;
47251;SDS011;32991;51.374;11.586;2023-06-19T11:55:13;4.05;;;3.50;;
47251;SDS011;32991;51.374;11.586;2023-06-19T11:57:40;4.35;;;3.97;;
47251;SDS011;32991;51.374;11.586;2023-06-19T12:00:16;4.15;;;3.78;;
47251;SDS011;32991;51.374;11.586;2023-06-19T12:02:44;4.82;;;4.30;;
47251;SDS011;32991;51.374;11.586;2023-06-19T12:05:12;6.53;;;4.15;;
47251;SDS011;32991;51.374;11.586;2023-06-19T12:07:38;4.25;;;3.65;;
47251;SDS011;32991;51.374;11.586;2023-06-19T12:10:05;4.35;;;3.95;;
47251;SDS011;32991;51.374;11.586;2023-06-19T12:12:36;4.00;;;3.63;;
47251;SDS011;32991;51.374;11.586;2023-06-19T12:15:04;3.97;;;3.67;;
47251;SDS011;32991;51.374;11.586;2023-06-19T12:17:31;4.93;;;4.10;;
47251;SDS011;32991;51.374;11.586;2023-06-19T12:20:00;4.85;;;4.07;;
47251;SDS011;32991;51.374;11.586;2023-06-19T12:22:27;4.32;;;3.97;;
47251;SDS011;32991;51.374;11.586;2023-06-19T12:24:54;3.92;;;3.63;;
47251;SDS011;32991;51.374;11.586;2023-06-19T12:27:21;4.63;;;4.00;;
47251;SDS011;32991;51.374;11.586;2023-06-19T12:29:48;4.65;;;4.25;;
47251;SDS011;32991;51.374;11.586;2023-06-19T12:32:14;5.15;;;4.13;;
47251;SDS011;32991;51.374;11.586;2023-06-19T12:34:41;4.53;;;4.10;;
47251;SDS011;32991;51.374;11.586;2023-06-19T12:37:15;4.95;;;4.35;;
47251;SDS011;32991;51.374;11.586;2023-06-19T12:39:46;4.40;;;3.75;;
47251;SDS011;32991;51.374;11.586;2023-06-19T12:42:15;6.25;;;4.90;;
47251;SDS011;32991;51.374;11.586;2023-06-19T12:44:42;5.57;;;4.32;;
47251;SDS011;32991;51.374;11.586;2023-06-19T12:47:10;5.43;;;4.93;;
47251;SDS011;32991;51.374;11.586;2023-06-19T12:49:37;4.75;;;4.35;;
47251;SDS011;32991;51.374;11.586;2023-06-19T12:52:04;5.05;;;4.22;;
47251;SDS011;32991;51.374;11.586;2023-06-19T12:54:31;4.90;;;4.50;;
47251;SDS011;32991;51.374;11.586;2023-06-19T12:56:58;4.85;;;4.45;;
47251;SDS011;32991;51.374;11.586;2023-06-19T12:59:24;5.10;;;4.70;;
47251;SDS011;32991;51.374;11.586;2023-06-19T13:01:51;5.70;;;5.10;;
47251;SDS011;32991;51.374;11.586;2023-06-19T13:04:18;5.90;;;5.30;;
47251;SDS011;32991;51.374;11.586;2023-06-19T13:06:45;7.32;;;5.20;;
47251;SDS011;32991;51.374;11.586;2023-06-19T13:09:11;5.28;;;4.78;;
47251;SDS011;32991;51.374;11.586;2023-06-19T13:11:38;5.45;;;5.05;;
47251;SDS011;32991;51.374;11.586;2023-06-19T13:14:05;5.68;;;5.05;;
47251;SDS011;32991;51.374;11.586;2023-06-19T13:16:32;5.97;;;5.38;;
47251;SDS011;32991;51.374;11.586;2023-06-19T13:19:12;6.75;;;5.20;;
47251;SDS011;32991;51.374;11.586;2023-06-19T13:21:40;6.57;;;5.10;;
47251;SDS011;32991;51.374;11.586;2023-06-19T13:24:07;5.43;;;4.93;;
47251;SDS011;32991;51.374;11.586;2023-06-19T13:26:34;5.72;;;5.07;;
47251;SDS011;32991;51.374;11.586;2023-06-19T13:29:01;5.63;;;5.13;;
47251;SDS011;32991;51.374;11.586;2023-06-19T13:31:27;5.78;;;5.30;;
47251;SDS011;32991;51.374;11.586;2023-06-19T13:33:54;5.70;;;5.20;;
47251;SDS011;32991;51.374;11.586;2023-06-19T13:36:21;5.93;;;5.38;;
47251;SDS011;32991;51.374;11.586;2023-06-19T13:38:50;5.78;;;5.10;;
47251;SDS011;32991;51.374;11.586;2023-06-19T13:41:16;6.57;;;5.25;;
47251;SDS011;32991;51.374;11.586;2023-06-19T13:43:43;5.47;;;4.97;;
47251;SDS011;32991;51.374;11.586;2023-06-19T13:46:12;7.28;;;5.50;;
47251;SDS011;32991;51.374;11.586;2023-06-19T13:48:39;7.07;;;5.53;;
47251;SDS011;32991;51.374;11.586;2023-06-19T13:51:05;6.25;;;5.65;;
47251;SDS011;32991;51.374;11.586;2023-06-19T13:53:32;6.75;;;5.60;;
47251;SDS011;32991;51.374;11.586;2023-06-19T13:55:59;6.15;;;5.65;;
47251;SDS011;32991;51.374;11.586;2023-06-19T13:58:26;6.82;;;5.00;;
47251;SDS011;32991;51.374;11.586;2023-06-19T14:00:52;6.20;;;5.35;;
47251;SDS011;32991;51.374;11.586;2023-06-19T14:03:19;5.93;;;5.32;;
47251;SDS011;32991;51.374;11.586;2023-06-19T14:05:46;5.50;;;4.90;;
47251;SDS011;32991;51.374;11.586;2023-06-19T14:08:13;6.75;;;5.32;;
47251;SDS011;32991;51.374;11.586;2023-06-19T14:10:40;6.07;;;5.47;;
47251;SDS011;32991;51.374;11.586;2023-06-19T14:13:06;5.97;;;5.38;;
47251;SDS011;32991;51.374;11.586;2023-06-19T14:15:33;5.88;;;5.28;;
47251;SDS011;32991;51.374;11.586;2023-06-19T14:18:00;5.95;;;5.32;;
47251;SDS011;32991;51.374;11.586;2023-06-19T14:20:27;6.00;;;5.40;;
47251;SDS011;32991;51.374;11.586;2023-06-19T14:22:53;5.63;;;5.13;;
47251;SDS011;32991;51.374;11.586;2023-06-19T14:25:20;5.93;;;5.43;;
47251;SDS011;32991;51.374;11.586;2023-06-19T14:27:47;7.40;;;5.30;;
47251;SDS011;32991;51.374;11.586;2023-06-19T14:30:14;5.35;;;4.95;;
47251;SDS011;32991;51.374;11.586;2023-06-19T14:32:40;5.70;;;5.03;;
47251;SDS011;32991;51.374;11.586;2023-06-19T14:35:07;5.57;;;5.10;;
47251;SDS011;32991;51.374;11.586;2023-06-19T14:37:34;6.30;;;5.00;;
47251;SDS011;32991;51.374;11.586;2023-06-19T14:40:00;5.32;;;4.93;;
47251;SDS011;32991;51.374;11.586;2023-06-19T14:42:27;5.57;;;5.07;;
47251;SDS011;32991;51.374;11.586;2023-06-19T14:44:54;5.22;;;4.72;;